Time;durP1;ratioP1;P1;durP2;ratioP2;P2;SDS_P1;SDS_P2;PMS_P1;PMS_P2;Temp;Humidity;BMP_temperature;BMP_pressure;BME280_temperature;BME280_humidity;BME280_pressure;Samples;Min_cycle;Max_cycle;Signal;HPM_P1;HPM_P2
2022/03/17 00:00:15;;;;;;;31.13;18.80;;;;;;;7.99;100.00;101902.88;10195760;29;20032;-89
2022/03/17 00:05:16;;;;;;;34.15;20.58;;;;;;;7.91;100.00;101894.88;10195802;29;20042;-89
2022/03/17 00:10:16;;;;;;;37.53;20.38;;;;;;;7.87;100.00;101872.50;10195933;29;20130;-89
2022/03/17 00:15:17;;;;;;;29.58;17.98;;;;;;;7.94;100.00;101884.31;10195647;29;20165;-89
2022/03/17 00:38:41;;;;;;;34.15;21.10;;;;;;;8.16;100.00;101909.59;11312706;23;20038;-85
2022/03/17 00:44:14;;;;;;;32.42;20.25;;;;;;;8.39;100.00;101946.72;3047132;23;20059;-89
2022/03/17 00:49:15;;;;;;;29.00;19.75;;;;;;;7.60;100.00;101833.31;10135034;29;20067;-88
2022/03/17 00:54:16;;;;;;;33.78;19.85;;;;;;;7.94;100.00;101903.53;10108423;29;20156;-88
2022/03/17 00:59:16;;;;;;;30.98;19.40;;;;;;;7.73;100.00;101859.84;10108500;29;20040;-87
2022/03/17 01:04:17;;;;;;;31.58;20.63;;;;;;;7.59;100.00;101832.47;10084663;29;20493;-87
2022/03/17 01:09:20;;;;;;;34.67;18.35;;;;;;;7.16;100.00;101747.94;10070499;29;20150;-87
2022/03/17 01:14:20;;;;;;;31.80;19.00;;;;;;;8.25;100.00;101913.00;10073485;23;20040;-73
2022/03/17 01:19:21;;;;;;;35.42;19.65;;;;;;;8.12;100.00;101877.34;10325764;28;20046;-73
2022/03/17 01:24:21;;;;;;;36.65;20.70;;;;;;;8.25;100.00;101896.53;10323470;28;20046;-73
2022/03/17 01:29:23;;;;;;;34.35;20.20;;;;;;;8.26;100.00;101887.22;10339644;28;20057;-72
2022/03/17 01:34:23;;;;;;;35.83;19.80;;;;;;;8.21;100.00;101874.16;10323568;28;20163;-73
2022/03/17 01:39:24;;;;;;;32.00;18.02;;;;;;;8.26;100.00;101884.47;10324264;28;20057;-73
2022/03/17 01:44:25;;;;;;;32.33;19.42;;;;;;;8.32;100.00;101880.03;10341160;28;20039;-73
2022/03/17 01:49:25;;;;;;;31.05;19.23;;;;;;;8.33;100.00;101876.22;10287509;28;20054;-73
2022/03/17 01:54:26;;;;;;;36.83;19.48;;;;;;;8.32;100.00;101863.59;10284055;28;20384;-73
2022/03/17 01:59:26;;;;;;;32.22;19.17;;;;;;;8.31;100.00;101854.53;10267844;28;20027;-73
2022/03/17 02:04:27;;;;;;;35.35;19.42;;;;;;;8.40;100.00;101866.09;10265321;28;20045;-73
2022/03/17 02:09:27;;;;;;;31.50;19.00;;;;;;;8.44;100.00;101857.25;10298899;28;20125;-72
2022/03/17 02:14:30;;;;;;;31.35;19.17;;;;;;;8.46;100.00;101860.63;10316782;28;20051;-72
2022/03/17 02:19:31;;;;;;;29.10;17.90;;;;;;;8.47;100.00;101848.59;10314230;28;20065;-74
2022/03/17 02:29:50;;;;;;;32.78;18.65;;;;;;;8.56;100.00;101859.28;10311918;28;20076;-73
2022/03/17 02:34:50;;;;;;;31.80;19.85;;;;;;;8.59;100.00;101848.72;10352690;28;20035;-73
2022/03/17 02:39:51;;;;;;;31.67;18.77;;;;;;;8.56;100.00;101827.22;10302321;28;20779;-73
2022/03/17 02:44:54;;;;;;;29.08;19.48;;;;;;;8.67;100.00;101837.50;10353601;28;20097;-73
2022/03/17 02:49:58;;;;;;;31.33;18.77;;;;;;;8.62;100.00;101825.50;10349237;28;20068;-73
2022/03/17 02:54:58;;;;;;;30.80;18.63;;;;;;;8.74;100.00;101844.88;10335636;28;20077;-73
2022/03/17 02:59:59;;;;;;;29.30;17.75;;;;;;;8.76;100.00;101831.78;10335227;28;20035;-73
2022/03/17 03:04:59;;;;;;;30.52;19.45;;;;;;;8.75;100.00;101841.09;10317942;28;20291;-73
2022/03/17 03:10:00;;;;;;;28.20;18.27;;;;;;;8.73;100.00;101844.03;10334495;28;20065;-72
2022/03/17 03:15:00;;;;;;;30.73;19.15;;;;;;;8.75;100.00;101835.59;10335358;28;20058;-73
2022/03/17 03:20:01;;;;;;;30.15;18.20;;;;;;;8.75;100.00;101841.09;10310803;28;20044;-73
2022/03/17 03:25:01;;;;;;;30.92;18.15;;;;;;;8.66;100.00;101832.22;10277826;28;20125;-72
2022/03/17 03:30:02;;;;;;;35.25;19.85;;;;;;;8.62;100.00;101836.47;10277204;28;20051;-74
2022/03/17 03:37:22;;;;;;;34.10;19.95;;;;;;;8.71;100.00;101828.84;10293871;28;20095;-73
2022/03/17 03:40:23;;;;;;;35.80;18.98;;;;;;;8.63;100.00;101844.50;10296935;28;20035;-73
2022/03/17 03:45:24;;;;;;;33.17;19.63;;;;;;;8.61;100.00;101841.13;10278138;28;20478;-73
2022/03/17 03:50:25;;;;;;;30.10;19.13;;;;;;;8.55;100.00;101832.94;10319611;28;20054;-74
2022/03/17 03:55:26;;;;;;;30.85;18.00;;;;;;;8.59;100.00;101851.47;10313692;28;20043;-73
2022/03/17 04:05:33;;;;;;;32.72;19.70;;;;;;;8.49;100.00;101831.88;10317104;28;20039;-74
2022/03/17 04:10:33;;;;;;;33.47;19.15;;;;;;;8.56;100.00;101845.56;10302434;28;20459;-73
2022/03/17 04:15:34;;;;;;;31.58;17.85;;;;;;;8.56;100.00;101842.81;10292792;28;20043;-73
2022/03/17 04:20:34;;;;;;;35.33;19.45;;;;;;;8.54;100.00;101843.06;10299792;28;20077;-73
2022/03/17 04:25:35;;;;;;;33.72;19.58;;;;;;;8.59;100.00;101859.72;10308634;28;20051;-73
2022/03/17 04:30:36;;;;;;;33.58;19.10;;;;;;;8.68;100.00;101852.94;10307960;28;20386;-73
2022/03/17 04:35:36;;;;;;;28.45;17.48;;;;;;;8.75;100.00;101850.16;10276316;28;20109;-73
2022/03/17 04:40:37;;;;;;;32.03;18.30;;;;;;;8.74;100.00;101833.91;10348619;28;20039;-73
2022/03/17 04:45:37;;;;;;;29.92;18.17;;;;;;;8.88;100.00;101858.31;10316194;28;20049;-74
2022/03/17 04:50:38;;;;;;;31.17;19.75;;;;;;;8.90;100.00;101866.34;10315250;28;20050;-74
2022/03/17 04:55:38;;;;;;;29.15;18.35;;;;;;;8.95;100.00;101880.28;10348479;28;20050;-73
2022/03/17 05:00:39;;;;;;;29.80;19.60;;;;;;;8.98;100.00;101871.59;10316027;28;20027;-73
2022/03/17 05:05:39;;;;;;;31.65;19.50;;;;;;;8.95;100.00;101877.53;10315998;28;20046;-73
2022/03/17 05:10:40;;;;;;;36.25;21.27;;;;;;;9.13;100.00;101904.25;10351217;28;20038;-73
2022/03/17 05:15:41;;;;;;;38.45;23.25;;;;;;;9.25;100.00;101929.97;10322922;28;20066;-74
2022/03/17 05:20:41;;;;;;;42.95;26.58;;;;;;;9.05;100.00;101941.09;10322488;28;20046;-73
2022/03/17 05:25:43;;;;;;;49.50;28.85;;;;;;;8.71;100.00;101947.75;10355245;28;20062;-73
2022/03/17 05:30:44;;;;;;;58.42;32.15;;;;;;;8.52;100.00;101956.88;10321684;28;20042;-73
2022/03/17 05:35:44;;;;;;;57.80;32.92;;;;;;;8.33;100.00;101959.41;10338051;28;20038;-72
2022/03/17 05:40:45;;;;;;;64.97;35.10;;;;;;;8.16;100.00;101964.47;10321245;28;20538;-72
2022/03/17 05:45:48;;;;;;;73.47;36.60;;;;;;;8.19;100.00;101991.50;10354690;28;20047;-71
2022/03/17 05:50:48;;;;;;;72.78;38.60;;;;;;;7.81;100.00;101953.72;10336785;28;20054;-72
2022/03/17 05:55:49;;;;;;;77.22;41.67;;;;;;;8.09;100.00;102018.50;10337451;28;20038;-72
2022/03/17 06:00:49;;;;;;;86.55;42.75;;;;;;;8.02;100.00;102014.88;10348771;28;20050;-71
2022/03/17 06:05:49;;;;;;;74.50;39.00;;;;;;;8.04;100.00;102054.78;10297544;28;20055;-71
2022/03/17 06:10:50;;;;;;;24.35;13.35;;;;;;;7.70;100.00;102079.56;10298153;28;20051;-72
2022/03/17 06:15:50;;;;;;;14.48;9.15;;;;;;;7.34;100.00;102091.63;10315949;28;20061;-72
2022/03/17 06:20:51;;;;;;;15.82;8.38;;;;;;;7.08;100.00;102099.50;10335756;28;20105;-72
2022/03/17 06:25:52;;;;;;;14.82;10.10;;;;;;;7.17;100.00;102132.22;10300897;28;20054;-73
2022/03/17 06:30:54;;;;;;;20.30;12.10;;;;;;;7.07;100.00;102149.84;10280921;28;20062;-72
2022/03/17 06:35:54;;;;;;;30.08;14.05;;;;;;;7.00;100.00;102170.00;10314484;28;20046;-71
2022/03/17 06:40:55;;;;;;;27.65;14.63;;;;;;;6.92;100.00;102160.03;10323559;28;20101;-71
2022/03/17 06:45:55;;;;;;;22.98;14.52;;;;;;;7.00;100.00;102179.06;10335140;28;20551;-73
2022/03/17 06:50:57;;;;;;;23.98;13.02;;;;;;;6.97;100.00;102200.53;10319802;28;20093;-71
2022/03/17 06:55:57;;;;;;;23.65;12.25;;;;;;;6.98;100.00;102214.00;10318652;28;20113;-73
2022/03/17 07:00:58;;;;;;;21.58;12.30;;;;;;;7.05;100.00;102225.88;10319132;28;20045;-72
2022/03/17 07:05:58;;;;;;;18.75;10.63;;;;;;;6.94;100.00;102240.09;10319674;28;20046;-71
2022/03/17 07:10:59;;;;;;;25.67;11.13;;;;;;;6.91;100.00;102276.09;10334597;28;20514;-72
2022/03/17 07:16:00;;;;;;;21.55;9.32;;;;;;;6.93;100.00;102282.22;10317788;28;20403;-72
2022/03/17 07:21:01;;;;;;;14.30;6.63;;;;;;;6.69;100.00;102268.91;10334301;28;20070;-72
2022/03/17 07:26:04;;;;;;;18.88;7.75;;;;;;;6.75;100.00;102277.19;10334084;28;20038;-72
2022/03/17 07:31:05;;;;;;;22.33;7.18;;;;;;;6.72;100.00;102309.56;10318071;28;20042;-72
2022/03/17 07:36:06;;;;;;;19.33;7.32;;;;;;;6.59;100.00;102324.78;10277526;28;20042;-73
2022/03/17 07:41:06;;;;;;;15.93;6.20;;;;;;;6.66;100.00;102331.19;10311569;28;20066;-72
2022/03/17 07:46:07;;;;;;;13.13;5.03;;;;;;;6.69;100.00;102334.59;10301872;28;20038;-73
2022/03/17 07:51:10;;;;;;;9.80;3.10;;;;;;;6.88;100.00;102355.84;10299839;28;20042;-73
2022/03/17 07:56:11;;;;;;;9.55;2.22;;;;;;;6.98;100.00;102363.78;10317821;28;20065;-72
2022/03/17 08:01:12;;;;;;;6.50;2.03;;;;;;;6.95;100.00;102370.47;10317665;28;20437;-73
2022/03/17 08:06:13;;;;;;;8.52;2.25;;;;;;;6.93;100.00;102367.09;10291539;28;20442;-72
2022/03/17 08:11:13;;;;;;;13.27;1.95;;;;;;;6.85;100.00;102378.16;10293397;28;20041;-73
2022/03/17 08:16:14;;;;;;;8.82;2.03;;;;;;;6.75;100.00;102396.78;10279162;28;20058;-73
2022/03/17 08:21:15;;;;;;;9.35;2.13;;;;;;;6.73;100.00;102415.28;10300874;28;20054;-74
2022/03/17 08:26:16;;;;;;;8.63;2.25;;;;;;;6.74;100.00;102441.59;10350575;28;20045;-73
2022/03/17 08:31:16;;;;;;;7.55;1.52;;;;;;;6.69;100.00;102444.06;10316172;28;20046;-73
2022/03/17 08:36:17;;;;;;;13.57;2.50;;;;;;;6.69;100.00;102476.91;10332706;28;20049;-74
2022/03/17 08:41:18;;;;;;;16.95;2.90;;;;;;;6.66;100.00;102478.16;10332767;28;20093;-73
2022/03/17 08:51:38;;;;;;;12.48;1.35;;;;;;;6.62;100.00;102485.88;10342407;28;20060;-73
2022/03/17 08:56:39;;;;;;;14.82;3.38;;;;;;;6.80;100.00;102509.28;10339313;28;20031;-73
2022/03/17 09:01:39;;;;;;;17.23;2.30;;;;;;;6.84;100.00;102525.16;10340403;28;20089;-72
2022/03/17 09:06:43;;;;;;;11.40;2.78;;;;;;;6.79;100.00;102532.22;10318447;28;20120;-73
2022/03/17 09:11:45;;;;;;;14.45;1.80;;;;;;;6.88;100.00;102539.28;10335056;28;20075;-73
2022/03/17 09:16:46;;;;;;;15.52;2.88;;;;;;;6.96;100.00;102555.63;10335140;28;20065;-73
2022/03/17 09:21:47;;;;;;;13.70;2.40;;;;;;;6.92;100.00;102564.41;10318183;28;20043;-74
2022/03/17 09:26:47;;;;;;;19.00;2.97;;;;;;;6.85;100.00;102587.06;10334929;28;20050;-73
2022/03/17 09:31:49;;;;;;;12.63;2.10;;;;;;;6.84;100.00;102595.47;10335996;28;20061;-74
2022/03/17 09:36:49;;;;;;;7.90;1.42;;;;;;;6.86;100.00;102615.28;10319443;28;20034;-73
2022/03/17 09:41:50;;;;;;;14.77;1.65;;;;;;;6.95;100.00;102630.59;10351927;28;20063;-73
2022/03/17 09:46:50;;;;;;;10.38;1.95;;;;;;;7.19;100.00;102613.06;10319185;28;20051;-73
2022/03/17 09:51:54;;;;;;;10.23;1.63;;;;;;;7.40;100.00;102617.78;10297011;28;20047;-73
2022/03/17 09:56:55;;;;;;;5.97;1.42;;;;;;;7.30;100.00;102633.66;10277470;28;20027;-73
2022/03/17 10:01:57;;;;;;;12.27;1.98;;;;;;;7.26;100.00;102648.75;10310467;28;20031;-74
2022/03/17 10:06:59;;;;;;;12.75;2.15;;;;;;;7.16;100.00;102670.09;10321824;28;20046;-73
2022/03/17 10:12:01;;;;;;;14.50;2.95;;;;;;;7.17;100.00;102682.75;10334028;28;20065;-74
2022/03/17 10:17:06;;;;;;;15.05;1.77;;;;;;;7.05;100.00;102696.91;10317692;28;20082;-74
2022/03/17 10:22:08;;;;;;;12.35;2.65;;;;;;;6.95;100.00;102662.63;10334149;28;20109;-73
2022/03/17 10:27:08;;;;;;;15.95;3.78;;;;;;;7.38;100.00;102706.66;10334404;28;20041;-73
2022/03/17 10:32:14;;;;;;;10.70;1.58;;;;;;;7.88;100.00;102714.13;10334446;28;20042;-72
2022/03/17 10:37:19;;;;;;;13.00;2.08;;;;;;;8.43;100.00;102733.81;10293977;28;20082;-74
2022/03/17 10:42:21;;;;;;;17.30;3.63;;;;;;;8.87;100.00;102746.50;10293081;28;20047;-74
2022/03/17 10:47:25;;;;;;;13.57;1.90;;;;;;;9.10;100.00;102745.44;10297806;28;20038;-73
2022/03/17 10:52:45;;;;;;;14.18;2.35;;;;;;;9.01;100.00;102752.97;10290374;28;20042;-73
2022/03/17 10:57:46;;;;;;;15.55;2.38;;;;;;;9.15;100.00;102775.88;10298916;28;20049;-74
2022/03/17 11:02:50;;;;;;;14.00;2.42;;;;;;;9.15;100.00;102775.03;10315640;28;20475;-75
2022/03/17 11:07:53;;;;;;;9.00;1.50;;;;;;;9.15;100.00;102734.66;10314601;28;20041;-73
2022/03/17 11:12:54;;;;;;;8.15;1.83;;;;;;;9.78;100.00;102786.94;10332094;28;20042;-74
2022/03/17 11:18:04;;;;;;;10.55;1.65;;;;;;;10.20;100.00;102800.72;10298871;28;20046;-74
2022/03/17 11:23:19;;;;;;;13.45;2.03;;;;;;;10.75;100.00;102806.22;10316086;28;20058;-73
2022/03/17 11:28:36;;;;;;;11.52;2.35;;;;;;;10.46;100.00;102820.13;10331699;28;20044;-73
2022/03/17 11:33:39;;;;;;;11.30;1.90;;;;;;;10.60;100.00;102834.78;10311682;28;20062;-73
2022/03/17 11:38:43;;;;;;;10.65;2.33;;;;;;;10.96;100.00;102830.03;10290086;28;20061;-73
2022/03/17 11:44:00;;;;;;;10.73;1.65;;;;;;;10.90;100.00;102829.78;10279495;28;20039;-73
2022/03/17 11:49:19;;;;;;;9.77;2.28;;;;;;;11.00;100.00;102829.38;10291391;28;20050;-72
2022/03/17 11:54:20;;;;;;;10.65;1.98;;;;;;;10.57;100.00;102860.00;10274444;28;20035;-73
2022/03/17 11:59:41;;;;;;;11.32;2.33;;;;;;;10.70;100.00;102857.28;10306931;28;20035;-73
2022/03/17 12:04:49;;;;;;;6.88;1.52;;;;;;;11.10;100.00;102851.88;10292013;28;20065;-73
2022/03/17 12:09:49;;;;;;;12.18;2.03;;;;;;;10.68;100.00;102864.91;10298744;28;20105;-72
2022/03/17 12:14:59;;;;;;;11.27;2.20;;;;;;;11.20;100.00;102864.41;10345901;28;20046;-72
2022/03/17 12:20:05;;;;;;;13.63;2.42;;;;;;;12.56;95.80;102854.69;10312928;28;20152;-72
2022/03/17 12:25:22;;;;;;;5.45;1.92;;;;;;;12.11;88.74;102863.75;10345631;28;20534;-72
2022/03/17 12:30:24;;;;;;;10.45;2.63;;;;;;;12.33;87.35;102850.50;10334522;28;20046;-73
2022/03/17 12:35:25;;;;;;;5.88;2.05;;;;;;;13.05;85.13;102873.34;10337985;28;20030;-71
2022/03/17 12:40:26;;;;;;;6.72;1.73;;;;;;;13.12;81.39;102868.63;10334534;28;20097;-72
2022/03/17 12:45:26;;;;;;;10.20;1.70;;;;;;;13.65;77.04;102866.56;10316485;28;20042;-72
2022/03/17 12:50:28;;;;;;;10.77;2.55;;;;;;;13.20;76.35;102866.66;10327517;28;20410;-74
2022/03/17 12:55:29;;;;;;;6.53;1.52;;;;;;;13.12;76.80;102893.53;10337270;28;20035;-74
2022/03/17 13:00:29;;;;;;;7.18;1.67;;;;;;;13.36;76.77;102904.03;10321116;28;20038;-76
2022/03/17 13:16:08;;;;;;;10.25;1.65;;;;;;;14.48;71.72;102907.66;10324793;28;20094;-73
2022/03/17 13:21:12;;;;;;;6.50;1.27;;;;;;;14.69;67.42;102886.97;10306058;28;20086;-74
2022/03/17 13:26:25;;;;;;;8.35;1.73;;;;;;;15.13;67.91;102904.31;10279202;28;20062;-72
2022/03/17 13:31:55;;;;;;;10.65;2.13;;;;;;;14.33;64.92;102916.38;10321799;28;20038;-72
2022/03/17 13:36:57;;;;;;;4.53;1.10;;;;;;;14.71;66.88;102923.63;10312725;28;20128;-72
2022/03/17 13:42:09;;;;;;;7.07;1.85;;;;;;;14.76;64.30;102908.22;10331059;28;20045;-72
2022/03/17 13:47:21;;;;;;;8.35;2.08;;;;;;;14.07;65.76;102898.09;10331487;28;20107;-72
2022/03/17 13:52:22;;;;;;;6.88;1.40;;;;;;;14.55;66.12;102924.22;10300322;28;20448;-71
2022/03/17 13:57:22;;;;;;;12.77;1.73;;;;;;;14.78;64.00;102936.56;10279260;28;20054;-72
2022/03/17 14:02:23;;;;;;;12.18;1.88;;;;;;;15.08;62.29;102922.72;10294709;28;20499;-71
2022/03/17 14:07:23;;;;;;;8.68;1.50;;;;;;;14.44;65.82;102966.56;10296151;28;20514;-70
2022/03/17 14:12:24;;;;;;;6.60;1.65;;;;;;;15.66;61.39;102960.09;10313883;28;20038;-72
2022/03/17 14:17:24;;;;;;;9.60;1.83;;;;;;;15.64;62.52;102973.34;10293639;28;20062;-71
2022/03/17 14:27:44;;;;;;;7.68;1.73;;;;;;;14.91;61.83;102983.56;10320508;28;20105;-69
2022/03/17 14:32:44;;;;;;;5.53;1.77;;;;;;;14.45;63.57;102998.72;10332707;28;20042;-68
2022/03/17 14:37:45;;;;;;;10.15;1.80;;;;;;;15.11;60.06;102997.16;10332583;28;20066;-72
2022/03/17 14:42:49;;;;;;;5.88;1.90;;;;;;;15.43;58.77;103003.34;10332926;28;20030;-72
2022/03/17 14:47:49;;;;;;;7.05;1.67;;;;;;;15.78;57.57;103010.97;10350888;28;20041;-70
2022/03/17 14:52:52;;;;;;;8.98;1.55;;;;;;;16.02;56.86;103006.34;10331242;28;20525;-70
2022/03/17 14:57:52;;;;;;;5.80;1.65;;;;;;;15.76;55.96;103021.47;10350302;28;20041;-71
2022/03/17 15:02:52;;;;;;;11.02;1.63;;;;;;;16.02;55.10;102969.34;10316017;28;20049;-71
2022/03/17 15:07:53;;;;;;;4.93;1.08;;;;;;;15.97;55.37;103035.91;10331732;28;20038;-70
2022/03/17 15:12:54;;;;;;;8.93;2.70;;;;;;;15.39;55.85;103037.38;10315781;28;20031;-73
2022/03/17 15:17:55;;;;;;;10.80;1.63;;;;;;;15.12;57.30;103052.41;10304832;28;20065;-73
2022/03/17 15:22:55;;;;;;;6.55;1.40;;;;;;;14.65;57.49;103052.06;10342350;28;20065;-71
2022/03/17 15:33:15;;;;;;;6.57;1.63;;;;;;;14.81;56.41;103066.44;10348524;28;20190;-73
2022/03/17 15:38:15;;;;;;;7.97;2.10;;;;;;;14.71;56.56;103065.03;10330898;28;20174;-71
2022/03/17 15:43:16;;;;;;;7.40;1.52;;;;;;;14.63;56.51;103067.25;10327949;28;20042;-72
2022/03/17 15:48:17;;;;;;;4.22;0.98;;;;;;;15.27;55.28;103078.91;10314765;28;20038;-71
2022/03/17 15:53:17;;;;;;;8.90;2.28;;;;;;;15.76;54.18;103067.84;10329829;28;20057;-71
2022/03/17 15:58:18;;;;;;;6.20;1.42;;;;;;;15.95;54.87;103083.38;10282836;28;20061;-72
2022/03/17 16:03:20;;;;;;;6.20;1.83;;;;;;;15.35;54.72;103084.16;10346988;28;20081;-71
2022/03/17 16:08:20;;;;;;;7.10;1.73;;;;;;;14.73;55.45;103104.47;10307767;28;20133;-72
2022/03/17 16:18:40;;;;;;;10.82;1.60;;;;;;;13.24;59.32;103128.75;10312625;28;20065;-71
2022/03/17 16:23:42;;;;;;;10.93;2.22;;;;;;;12.40;62.81;103146.06;10294925;28;20043;-71
2022/03/17 16:28:43;;;;;;;8.75;1.30;;;;;;;11.71;64.01;103151.59;10308993;28;20050;-71
2022/03/17 16:33:45;;;;;;;5.40;0.80;;;;;;;10.75;66.32;103181.78;10309446;28;20055;-72
2022/03/17 16:38:45;;;;;;;8.13;1.08;;;;;;;10.27;71.66;103198.00;10292313;28;20125;-70
2022/03/17 16:43:46;;;;;;;9.60;1.77;;;;;;;9.88;73.11;103208.38;10309284;28;20422;-72
2022/03/17 16:48:47;;;;;;;6.07;1.20;;;;;;;9.49;75.33;103227.97;10308980;28;20039;-70
2022/03/17 16:53:47;;;;;;;7.25;1.00;;;;;;;9.28;76.08;103237.81;10328681;28;20055;-71
2022/03/17 16:58:48;;;;;;;4.97;1.10;;;;;;;9.22;78.45;103262.41;10310305;28;20395;-72
2022/03/17 17:03:49;;;;;;;7.03;1.65;;;;;;;8.94;80.58;103257.53;10307145;28;20089;-72
2022/03/17 17:08:49;;;;;;;7.05;1.10;;;;;;;8.81;81.84;103274.63;10313033;28;20038;-71
2022/03/17 17:13:50;;;;;;;4.38;1.10;;;;;;;8.70;85.21;103294.28;10321239;28;20038;-71
2022/03/17 17:18:51;;;;;;;6.38;1.23;;;;;;;8.37;85.60;103277.13;10304786;28;20054;-70
2022/03/17 17:34:31;;;;;;;11.68;1.98;;;;;;;7.84;91.54;103316.13;10352234;28;20049;-73
2022/03/17 17:39:32;;;;;;;6.38;1.25;;;;;;;7.72;96.11;103344.97;10319199;28;20070;-73
2022/03/17 17:44:33;;;;;;;8.15;1.40;;;;;;;7.39;99.16;103336.78;10353643;28;20046;-73
2022/03/17 17:49:33;;;;;;;6.05;1.00;;;;;;;7.15;100.00;103343.16;10353230;28;20144;-73
2022/03/17 17:54:34;;;;;;;8.38;1.00;;;;;;;7.04;100.00;103368.97;10317484;28;20031;-73
2022/03/17 17:59:34;;;;;;;9.85;1.50;;;;;;;6.89;100.00;103380.78;10333062;28;20042;-73
2022/03/17 18:04:35;;;;;;;4.68;1.17;;;;;;;6.57;100.00;103388.72;10318075;28;20066;-73
2022/03/17 18:09:35;;;;;;;11.73;1.55;;;;;;;6.37;100.00;103400.97;10298012;28;20049;-74
2022/03/17 18:14:36;;;;;;;9.25;1.90;;;;;;;6.24;100.00;103415.97;10251135;28;20058;-73
2022/03/17 18:19:36;;;;;;;6.22;1.35;;;;;;;6.11;100.00;103420.16;10281256;28;20083;-74
2022/03/17 18:24:37;;;;;;;8.23;1.98;;;;;;;5.93;100.00;103414.72;10302675;28;20046;-73
2022/03/17 18:29:38;;;;;;;8.15;2.83;;;;;;;5.76;100.00;103428.25;10320233;28;20073;-73
2022/03/17 18:34:38;;;;;;;4.75;1.48;;;;;;;5.57;100.00;103437.50;10291710;28;20443;-73
2022/03/17 18:39:39;;;;;;;5.40;1.33;;;;;;;5.36;100.00;103451.50;10347554;28;20038;-73
2022/03/17 18:44:39;;;;;;;10.45;1.90;;;;;;;5.18;100.00;103453.38;10350184;28;20050;-73
2022/03/17 18:49:40;;;;;;;8.65;1.95;;;;;;;5.07;100.00;103464.53;10315866;28;20034;-74
2022/03/17 18:54:40;;;;;;;8.48;2.90;;;;;;;4.84;100.00;103473.16;10330872;28;20046;-74
2022/03/17 18:59:41;;;;;;;13.20;2.78;;;;;;;4.72;100.00;103472.50;10286659;28;20043;-74
2022/03/17 19:04:41;;;;;;;14.00;3.67;;;;;;;4.61;100.00;103481.75;10293140;28;20341;-73
2022/03/17 19:09:42;;;;;;;11.55;3.05;;;;;;;4.42;100.00;103495.44;10314010;28;20046;-73
2022/03/17 19:14:42;;;;;;;10.43;2.88;;;;;;;4.35;100.00;103518.88;10331453;28;20041;-73
2022/03/17 19:19:43;;;;;;;19.17;4.57;;;;;;;4.19;100.00;103536.69;10290444;28;21356;-73
2022/03/17 19:24:43;;;;;;;8.07;2.58;;;;;;;4.08;100.00;103538.75;10306168;28;20054;-74
2022/03/17 19:29:44;;;;;;;10.13;2.50;;;;;;;3.96;100.00;103532.59;10289209;28;20038;-73
2022/03/17 19:34:45;;;;;;;11.40;2.53;;;;;;;4.00;100.00;103564.00;10287555;28;20035;-73
2022/03/17 19:39:47;;;;;;;7.35;2.10;;;;;;;3.92;100.00;103580.22;10305333;28;20034;-73
2022/03/17 19:44:47;;;;;;;11.80;1.90;;;;;;;3.80;100.00;103579.50;10290378;28;20504;-73
2022/03/17 19:55:07;;;;;;;8.77;1.88;;;;;;;3.58;100.00;103605.16;10304683;28;20042;-73
2022/03/17 20:00:11;;;;;;;13.27;2.85;;;;;;;3.41;100.00;103593.94;10305554;28;20525;-73
2022/03/17 20:05:12;;;;;;;14.13;3.15;;;;;;;3.37;100.00;103617.00;10305595;28;20062;-73
2022/03/17 20:10:12;;;;;;;9.93;3.63;;;;;;;3.22;100.00;103621.09;10305961;28;20039;-73
2022/03/17 20:15:13;;;;;;;12.32;3.20;;;;;;;3.04;100.00;103612.75;10258405;28;20035;-73
2022/03/17 20:20:14;;;;;;;16.08;3.40;;;;;;;3.17;100.00;103642.44;10341914;28;20057;-73
2022/03/17 20:25:14;;;;;;;16.75;3.70;;;;;;;3.14;100.00;103643.59;10330280;28;20061;-74
2022/03/17 20:30:15;;;;;;;17.70;4.40;;;;;;;3.13;100.00;103647.28;10345415;28;20038;-73
2022/03/17 20:35:15;;;;;;;11.40;3.72;;;;;;;3.16;100.00;103657.03;10347034;28;20038;-74
2022/03/17 20:40:16;;;;;;;11.55;3.00;;;;;;;3.08;100.00;103654.13;10331811;28;20045;-73
2022/03/17 20:45:16;;;;;;;8.43;3.53;;;;;;;3.03;100.00;103668.16;10355194;28;20031;-73
2022/03/17 20:50:17;;;;;;;14.20;4.53;;;;;;;2.93;100.00;103672.69;10336914;28;20062;-74
2022/03/17 20:55:17;;;;;;;9.48;2.90;;;;;;;2.78;100.00;103669.47;10337007;28;20038;-73
2022/03/17 21:00:19;;;;;;;13.15;3.42;;;;;;;2.75;100.00;103677.88;10335704;28;20030;-73
2022/03/17 21:05:20;;;;;;;14.65;3.08;;;;;;;2.72;100.00;103691.75;10335869;28;20038;-74
2022/03/17 21:10:21;;;;;;;12.23;4.10;;;;;;;2.59;100.00;103673.78;10352676;28;20472;-73
2022/03/17 21:15:21;;;;;;;13.32;3.20;;;;;;;2.55;100.00;103680.47;10319718;28;20035;-74
2022/03/17 21:20:22;;;;;;;12.95;4.13;;;;;;;2.44;100.00;103688.72;10318458;28;20038;-73
2022/03/17 21:25:22;;;;;;;10.68;3.50;;;;;;;2.42;100.00;103701.56;10352041;28;20042;-73
2022/03/17 21:30:23;;;;;;;18.00;4.50;;;;;;;2.34;100.00;103709.53;10318653;28;20061;-73
2022/03/17 21:35:23;;;;;;;15.60;5.40;;;;;;;2.26;100.00;103704.72;10352372;28;20046;-73
2022/03/17 21:40:24;;;;;;;16.23;5.53;;;;;;;2.24;100.00;103708.56;10335253;28;20509;-73
2022/03/17 21:45:24;;;;;;;36.67;6.97;;;;;;;2.24;100.00;103719.44;10352019;28;20042;-73
2022/03/17 21:50:26;;;;;;;14.98;6.47;;;;;;;2.12;100.00;103703.16;10351204;28;20055;-73
2022/03/17 21:55:26;;;;;;;14.70;5.35;;;;;;;2.13;100.00;103702.19;10349567;28;20089;-73
2022/03/17 22:00:27;;;;;;;19.50;6.05;;;;;;;2.11;100.00;103715.03;10351592;28;20034;-74
2022/03/17 22:05:28;;;;;;;12.13;4.88;;;;;;;2.08;100.00;103726.16;10350318;28;20034;-73
2022/03/17 22:10:28;;;;;;;14.15;4.90;;;;;;;2.01;100.00;103730.38;10317696;28;20034;-73
2022/03/17 22:15:29;;;;;;;14.95;5.55;;;;;;;1.78;100.00;103714.13;10332320;28;20034;-73
2022/03/17 22:20:30;;;;;;;17.20;4.95;;;;;;;1.85;100.00;103735.34;10330684;28;20054;-73
2022/03/17 22:25:31;;;;;;;11.40;3.85;;;;;;;1.65;100.00;103724.25;10315998;28;20081;-73
2022/03/17 22:30:31;;;;;;;10.30;3.70;;;;;;;1.64;100.00;103744.25;10316487;28;20101;-73
2022/03/17 22:35:32;;;;;;;9.50;3.65;;;;;;;1.57;100.00;103743.91;10316688;28;20034;-73
2022/03/17 22:45:52;;;;;;;17.88;4.63;;;;;;;1.52;100.00;103766.97;10334290;28;20097;-73
2022/03/17 22:50:52;;;;;;;11.18;4.45;;;;;;;1.40;100.00;103764.25;10316012;28;20047;-73
2022/03/17 22:55:54;;;;;;;17.23;4.90;;;;;;;1.34;100.00;103759.31;10332176;28;20414;-73
2022/03/17 23:00:54;;;;;;;11.75;3.90;;;;;;;1.32;100.00;103764.00;10315203;28;20042;-73
2022/03/17 23:05:55;;;;;;;14.00;4.53;;;;;;;1.25;100.00;103759.19;10314637;28;20034;-73
2022/03/17 23:10:55;;;;;;;12.27;4.75;;;;;;;1.21;100.00;103777.56;10314316;28;20065;-73
2022/03/17 23:15:56;;;;;;;11.88;4.35;;;;;;;1.16;100.00;103793.34;10348346;28;20074;-73
2022/03/17 23:20:56;;;;;;;9.77;4.53;;;;;;;0.82;100.00;103749.84;10348886;28;20046;-73
2022/03/17 23:25:57;;;;;;;13.35;5.55;;;;;;;1.08;100.00;103798.50;10331521;28;20075;-74
2022/03/17 23:30:57;;;;;;;10.38;4.55;;;;;;;0.99;100.00;103794.66;10331489;28;20042;-73
2022/03/17 23:35:58;;;;;;;16.90;5.32;;;;;;;1.14;100.00;103820.59;10315366;28;20046;-73
2022/03/17 23:40:58;;;;;;;13.77;4.75;;;;;;;1.19;100.00;103814.81;10314957;28;20459;-73
2022/03/17 23:45:59;;;;;;;25.75;6.68;;;;;;;1.13;100.00;103815.28;10348929;28;20042;-73
2022/03/17 23:51:00;;;;;;;13.50;4.63;;;;;;;1.21;100.00;103823.69;10330598;28;20046;-73
2022/03/17 23:56:01;;;;;;;13.18;3.85;;;;;;;1.15;100.00;103824.19;10313603;28;20061;-73
